sensor_id;sensor_type;location;lat;lon;timestamp;P1;durP1;ratioP1;P2;durP2;ratioP2
62707;SDS011;48769;51.624;5.886;2022-12-29T00:02:25;5.72;;;3.72;;
62707;SDS011;48769;51.624;5.886;2022-12-29T00:04:50;5.03;;;4.15;;
62707;SDS011;48769;51.624;5.886;2022-12-29T00:07:16;6.28;;;4.25;;
62707;SDS011;48769;51.624;5.886;2022-12-29T00:09:41;4.47;;;4.07;;
62707;SDS011;48769;51.624;5.886;2022-12-29T00:12:07;3.95;;;3.55;;
62707;SDS011;48769;51.624;5.886;2022-12-29T00:14:32;3.25;;;2.60;;
62707;SDS011;48769;51.624;5.886;2022-12-29T00:17:16;5.13;;;1.95;;
62707;SDS011;48769;51.624;5.886;2022-12-29T00:19:41;3.63;;;2.63;;
62707;SDS011;48769;51.624;5.886;2022-12-29T00:22:25;2.10;;;1.70;;
62707;SDS011;48769;51.624;5.886;2022-12-29T00:25:10;1.30;;;1.20;;
62707;SDS011;48769;51.624;5.886;2022-12-29T00:27:55;1.55;;;1.30;;
62707;SDS011;48769;51.624;5.886;2022-12-29T00:30:39;6.25;;;1.42;;
62707;SDS011;48769;51.624;5.886;2022-12-29T00:33:31;6.07;;;1.60;;
62707;SDS011;48769;51.624;5.886;2022-12-29T00:36:27;2.58;;;1.40;;
62707;SDS011;48769;51.624;5.886;2022-12-29T00:39:02;1.88;;;1.50;;
62707;SDS011;48769;51.624;5.886;2022-12-29T00:41:51;2.72;;;1.75;;
62707;SDS011;48769;51.624;5.886;2022-12-29T00:44:35;7.03;;;3.05;;
62707;SDS011;48769;51.624;5.886;2022-12-29T00:47:00;4.30;;;3.35;;
62707;SDS011;48769;51.624;5.886;2022-12-29T00:49:29;8.05;;;4.07;;
62707;SDS011;48769;51.624;5.886;2022-12-29T00:52:07;6.90;;;4.30;;
62707;SDS011;48769;51.624;5.886;2022-12-29T00:54:35;6.28;;;5.18;;
62707;SDS011;48769;51.624;5.886;2022-12-29T00:57:02;7.90;;;5.70;;
62707;SDS011;48769;51.624;5.886;2022-12-29T00:59:29;6.85;;;5.82;;
62707;SDS011;48769;51.624;5.886;2022-12-29T01:01:54;8.10;;;6.28;;
62707;SDS011;48769;51.624;5.886;2022-12-29T01:04:21;8.07;;;6.45;;
62707;SDS011;48769;51.624;5.886;2022-12-29T01:06:47;8.32;;;6.47;;
62707;SDS011;48769;51.624;5.886;2022-12-29T01:09:13;9.10;;;6.22;;
62707;SDS011;48769;51.624;5.886;2022-12-29T01:11:58;6.65;;;5.72;;
62707;SDS011;48769;51.624;5.886;2022-12-29T01:14:24;6.65;;;5.28;;
62707;SDS011;48769;51.624;5.886;2022-12-29T01:16:49;6.00;;;4.60;;
62707;SDS011;48769;51.624;5.886;2022-12-29T01:19:15;4.85;;;4.38;;
62707;SDS011;48769;51.624;5.886;2022-12-29T01:21:42;4.75;;;4.20;;
62707;SDS011;48769;51.624;5.886;2022-12-29T01:24:07;5.75;;;5.13;;
62707;SDS011;48769;51.624;5.886;2022-12-29T01:26:33;6.90;;;4.03;;
62707;SDS011;48769;51.624;5.886;2022-12-29T01:28:58;6.30;;;3.53;;
62707;SDS011;48769;51.624;5.886;2022-12-29T01:31:23;3.67;;;3.38;;
62707;SDS011;48769;51.624;5.886;2022-12-29T01:33:48;3.67;;;3.30;;
62707;SDS011;48769;51.624;5.886;2022-12-29T01:36:14;3.10;;;2.80;;
62707;SDS011;48769;51.624;5.886;2022-12-29T01:38:41;3.40;;;2.85;;
62707;SDS011;48769;51.624;5.886;2022-12-29T01:41:09;3.80;;;2.72;;
62707;SDS011;48769;51.624;5.886;2022-12-29T01:46:22;5.40;;;2.65;;
62707;SDS011;48769;51.624;5.886;2022-12-29T01:48:53;3.20;;;1.75;;
62707;SDS011;48769;51.624;5.886;2022-12-29T01:51:24;4.57;;;2.35;;
62707;SDS011;48769;51.624;5.886;2022-12-29T01:53:50;4.88;;;1.80;;
62707;SDS011;48769;51.624;5.886;2022-12-29T01:56:19;2.30;;;1.67;;
62707;SDS011;48769;51.624;5.886;2022-12-29T01:58:46;4.32;;;2.22;;
62707;SDS011;48769;51.624;5.886;2022-12-29T02:01:15;3.13;;;1.25;;
62707;SDS011;48769;51.624;5.886;2022-12-29T02:03:44;3.42;;;1.55;;
62707;SDS011;48769;51.624;5.886;2022-12-29T02:06:23;2.72;;;1.38;;
62707;SDS011;48769;51.624;5.886;2022-12-29T02:08:55;3.85;;;1.50;;
62707;SDS011;48769;51.624;5.886;2022-12-29T02:11:21;2.35;;;1.27;;
62707;SDS011;48769;51.624;5.886;2022-12-29T02:13:50;3.03;;;1.30;;
62707;SDS011;48769;51.624;5.886;2022-12-29T02:27:57;3.97;;;1.42;;
62707;SDS011;48769;51.624;5.886;2022-12-29T02:39:21;6.05;;;1.40;;
62707;SDS011;48769;51.624;5.886;2022-12-29T02:42:05;2.97;;;1.23;;
62707;SDS011;48769;51.624;5.886;2022-12-29T02:47:14;3.92;;;1.10;;
62707;SDS011;48769;51.624;5.886;2022-12-29T02:49:57;2.35;;;1.00;;
62707;SDS011;48769;51.624;5.886;2022-12-29T02:52:36;2.75;;;0.93;;
62707;SDS011;48769;51.624;5.886;2022-12-29T02:55:08;6.07;;;1.38;;
62707;SDS011;48769;51.624;5.886;2022-12-29T02:57:36;3.13;;;1.00;;
62707;SDS011;48769;51.624;5.886;2022-12-29T03:00:05;2.78;;;1.10;;
62707;SDS011;48769;51.624;5.886;2022-12-29T03:13:19;2.97;;;1.08;;
62707;SDS011;48769;51.624;5.886;2022-12-29T03:16:16;2.53;;;1.10;;
62707;SDS011;48769;51.624;5.886;2022-12-29T03:19:10;1.73;;;0.90;;
62707;SDS011;48769;51.624;5.886;2022-12-29T03:22:01;4.50;;;1.35;;
62707;SDS011;48769;51.624;5.886;2022-12-29T03:24:52;6.03;;;1.23;;
62707;SDS011;48769;51.624;5.886;2022-12-29T03:27:22;3.78;;;1.27;;
62707;SDS011;48769;51.624;5.886;2022-12-29T03:29:54;6.07;;;1.30;;
62707;SDS011;48769;51.624;5.886;2022-12-29T03:32:23;4.43;;;1.23;;
62707;SDS011;48769;51.624;5.886;2022-12-29T03:34:56;3.15;;;1.20;;
62707;SDS011;48769;51.624;5.886;2022-12-29T03:37:23;2.67;;;1.13;;
62707;SDS011;48769;51.624;5.886;2022-12-29T03:39:53;4.13;;;1.20;;
62707;SDS011;48769;51.624;5.886;2022-12-29T03:42:20;3.72;;;1.20;;
62707;SDS011;48769;51.624;5.886;2022-12-29T03:44:48;3.17;;;1.30;;
62707;SDS011;48769;51.624;5.886;2022-12-29T03:47:19;3.28;;;1.20;;
62707;SDS011;48769;51.624;5.886;2022-12-29T03:49:44;3.15;;;1.33;;
62707;SDS011;48769;51.624;5.886;2022-12-29T03:52:09;1.67;;;0.75;;
62707;SDS011;48769;51.624;5.886;2022-12-29T03:54:35;2.30;;;0.93;;
62707;SDS011;48769;51.624;5.886;2022-12-29T03:57:00;6.07;;;1.30;;
62707;SDS011;48769;51.624;5.886;2022-12-29T03:59:25;2.97;;;0.90;;
62707;SDS011;48769;51.624;5.886;2022-12-29T04:01:50;4.18;;;1.00;;
62707;SDS011;48769;51.624;5.886;2022-12-29T04:04:16;2.92;;;1.00;;
62707;SDS011;48769;51.624;5.886;2022-12-29T04:06:41;4.13;;;0.77;;
62707;SDS011;48769;51.624;5.886;2022-12-29T04:09:07;3.08;;;0.93;;
62707;SDS011;48769;51.624;5.886;2022-12-29T04:11:34;1.80;;;0.88;;
62707;SDS011;48769;51.624;5.886;2022-12-29T04:13:59;6.28;;;1.00;;
62707;SDS011;48769;51.624;5.886;2022-12-29T04:16:24;4.35;;;1.25;;
62707;SDS011;48769;51.624;5.886;2022-12-29T04:18:53;4.88;;;1.00;;
62707;SDS011;48769;51.624;5.886;2022-12-29T04:21:18;6.95;;;1.20;;
62707;SDS011;48769;51.624;5.886;2022-12-29T04:23:43;3.75;;;0.75;;
62707;SDS011;48769;51.624;5.886;2022-12-29T04:26:09;4.40;;;1.00;;
62707;SDS011;48769;51.624;5.886;2022-12-29T04:28:34;6.20;;;0.85;;
62707;SDS011;48769;51.624;5.886;2022-12-29T04:31:00;7.97;;;1.30;;
62707;SDS011;48769;51.624;5.886;2022-12-29T04:33:27;8.23;;;1.15;;
62707;SDS011;48769;51.624;5.886;2022-12-29T04:35:52;5.57;;;0.75;;
62707;SDS011;48769;51.624;5.886;2022-12-29T04:38:19;3.50;;;0.70;;
62707;SDS011;48769;51.624;5.886;2022-12-29T04:40:45;5.57;;;1.52;;
62707;SDS011;48769;51.624;5.886;2022-12-29T04:43:11;3.67;;;0.75;;
62707;SDS011;48769;51.624;5.886;2022-12-29T04:45:37;4.25;;;0.77;;
62707;SDS011;48769;51.624;5.886;2022-12-29T04:48:02;6.43;;;0.80;;
62707;SDS011;48769;51.624;5.886;2022-12-29T04:50:28;6.45;;;1.20;;
62707;SDS011;48769;51.624;5.886;2022-12-29T04:52:53;2.63;;;0.77;;
62707;SDS011;48769;51.624;5.886;2022-12-29T04:55:19;6.65;;;0.95;;
62707;SDS011;48769;51.624;5.886;2022-12-29T04:57:45;3.70;;;0.65;;
62707;SDS011;48769;51.624;5.886;2022-12-29T05:00:10;5.78;;;0.93;;
62707;SDS011;48769;51.624;5.886;2022-12-29T05:02:36;5.07;;;0.88;;
62707;SDS011;48769;51.624;5.886;2022-12-29T05:05:02;6.47;;;1.00;;
62707;SDS011;48769;51.624;5.886;2022-12-29T05:07:28;4.10;;;0.82;;
62707;SDS011;48769;51.624;5.886;2022-12-29T05:09:53;5.10;;;0.90;;
62707;SDS011;48769;51.624;5.886;2022-12-29T05:12:18;9.65;;;1.27;;
62707;SDS011;48769;51.624;5.886;2022-12-29T05:14:43;5.30;;;1.40;;
62707;SDS011;48769;51.624;5.886;2022-12-29T05:17:09;6.57;;;1.30;;
62707;SDS011;48769;51.624;5.886;2022-12-29T05:19:34;7.82;;;1.23;;
62707;SDS011;48769;51.624;5.886;2022-12-29T05:21:59;6.15;;;1.20;;
62707;SDS011;48769;51.624;5.886;2022-12-29T05:24:25;9.05;;;1.80;;
62707;SDS011;48769;51.624;5.886;2022-12-29T05:26:50;3.97;;;1.17;;
62707;SDS011;48769;51.624;5.886;2022-12-29T05:29:15;11.50;;;1.70;;
62707;SDS011;48769;51.624;5.886;2022-12-29T05:31:41;9.77;;;1.40;;
62707;SDS011;48769;51.624;5.886;2022-12-29T05:34:06;8.50;;;1.55;;
62707;SDS011;48769;51.624;5.886;2022-12-29T05:36:31;6.45;;;1.15;;
62707;SDS011;48769;51.624;5.886;2022-12-29T05:38:57;6.15;;;0.98;;
62707;SDS011;48769;51.624;5.886;2022-12-29T05:41:22;7.68;;;1.40;;
62707;SDS011;48769;51.624;5.886;2022-12-29T05:43:47;7.97;;;1.27;;
62707;SDS011;48769;51.624;5.886;2022-12-29T05:46:13;7.18;;;1.17;;
62707;SDS011;48769;51.624;5.886;2022-12-29T05:48:38;9.05;;;1.20;;
62707;SDS011;48769;51.624;5.886;2022-12-29T05:51:03;3.33;;;0.85;;
62707;SDS011;48769;51.624;5.886;2022-12-29T05:53:29;9.10;;;1.20;;
62707;SDS011;48769;51.624;5.886;2022-12-29T05:55:54;8.40;;;1.13;;
62707;SDS011;48769;51.624;5.886;2022-12-29T05:58:19;9.40;;;1.60;;
62707;SDS011;48769;51.624;5.886;2022-12-29T06:00:45;5.97;;;1.15;;
62707;SDS011;48769;51.624;5.886;2022-12-29T06:03:10;9.75;;;1.65;;
62707;SDS011;48769;51.624;5.886;2022-12-29T06:05:35;4.72;;;1.15;;
62707;SDS011;48769;51.624;5.886;2022-12-29T06:08:01;7.25;;;1.48;;
62707;SDS011;48769;51.624;5.886;2022-12-29T06:10:26;4.47;;;1.33;;
62707;SDS011;48769;51.624;5.886;2022-12-29T06:12:52;6.03;;;0.90;;
62707;SDS011;48769;51.624;5.886;2022-12-29T06:15:17;4.10;;;1.13;;
62707;SDS011;48769;51.624;5.886;2022-12-29T06:17:43;4.25;;;1.30;;
62707;SDS011;48769;51.624;5.886;2022-12-29T06:20:08;6.25;;;1.50;;
62707;SDS011;48769;51.624;5.886;2022-12-29T06:22:35;7.90;;;1.10;;
62707;SDS011;48769;51.624;5.886;2022-12-29T06:25:00;7.13;;;1.35;;
62707;SDS011;48769;51.624;5.886;2022-12-29T06:27:26;9.50;;;1.23;;
62707;SDS011;48769;51.624;5.886;2022-12-29T06:29:52;7.28;;;1.15;;
62707;SDS011;48769;51.624;5.886;2022-12-29T06:32:17;6.07;;;1.20;;
62707;SDS011;48769;51.624;5.886;2022-12-29T06:34:42;5.32;;;1.25;;
62707;SDS011;48769;51.624;5.886;2022-12-29T06:37:09;5.90;;;1.30;;
62707;SDS011;48769;51.624;5.886;2022-12-29T06:39:35;6.03;;;1.27;;
62707;SDS011;48769;51.624;5.886;2022-12-29T06:42:00;7.32;;;1.13;;
62707;SDS011;48769;51.624;5.886;2022-12-29T06:44:25;11.85;;;1.27;;
62707;SDS011;48769;51.624;5.886;2022-12-29T06:46:50;4.45;;;1.20;;
62707;SDS011;48769;51.624;5.886;2022-12-29T06:49:16;5.75;;;0.98;;
62707;SDS011;48769;51.624;5.886;2022-12-29T06:51:42;12.13;;;1.60;;
62707;SDS011;48769;51.624;5.886;2022-12-29T06:54:07;7.93;;;1.40;;
62707;SDS011;48769;51.624;5.886;2022-12-29T06:56:33;4.35;;;1.33;;
62707;SDS011;48769;51.624;5.886;2022-12-29T06:58:58;7.28;;;1.63;;
62707;SDS011;48769;51.624;5.886;2022-12-29T07:01:25;9.13;;;1.67;;
62707;SDS011;48769;51.624;5.886;2022-12-29T07:03:51;5.00;;;1.17;;
62707;SDS011;48769;51.624;5.886;2022-12-29T07:06:16;11.85;;;1.65;;
62707;SDS011;48769;51.624;5.886;2022-12-29T07:08:42;9.00;;;1.60;;
62707;SDS011;48769;51.624;5.886;2022-12-29T07:11:07;8.70;;;2.00;;
62707;SDS011;48769;51.624;5.886;2022-12-29T07:13:33;8.75;;;1.90;;
62707;SDS011;48769;51.624;5.886;2022-12-29T07:15:59;7.28;;;1.58;;
62707;SDS011;48769;51.624;5.886;2022-12-29T07:18:24;7.47;;;1.20;;
62707;SDS011;48769;51.624;5.886;2022-12-29T07:20:52;9.88;;;1.90;;
62707;SDS011;48769;51.624;5.886;2022-12-29T07:23:18;9.52;;;1.52;;
62707;SDS011;48769;51.624;5.886;2022-12-29T07:25:43;7.70;;;1.35;;
62707;SDS011;48769;51.624;5.886;2022-12-29T07:28:08;13.57;;;1.35;;
62707;SDS011;48769;51.624;5.886;2022-12-29T07:30:36;11.75;;;1.98;;
62707;SDS011;48769;51.624;5.886;2022-12-29T07:33:02;7.68;;;1.30;;
62707;SDS011;48769;51.624;5.886;2022-12-29T07:35:27;13.93;;;2.05;;
62707;SDS011;48769;51.624;5.886;2022-12-29T07:37:53;12.93;;;1.70;;
62707;SDS011;48769;51.624;5.886;2022-12-29T07:40:18;8.85;;;1.65;;
62707;SDS011;48769;51.624;5.886;2022-12-29T07:42:44;7.25;;;1.10;;
62707;SDS011;48769;51.624;5.886;2022-12-29T07:45:10;15.07;;;1.77;;
62707;SDS011;48769;51.624;5.886;2022-12-29T07:47:35;6.95;;;1.20;;
62707;SDS011;48769;51.624;5.886;2022-12-29T07:50:00;10.95;;;1.65;;
62707;SDS011;48769;51.624;5.886;2022-12-29T07:52:26;7.22;;;1.38;;
62707;SDS011;48769;51.624;5.886;2022-12-29T07:54:51;8.65;;;1.17;;
62707;SDS011;48769;51.624;5.886;2022-12-29T07:57:16;13.52;;;1.52;;
62707;SDS011;48769;51.624;5.886;2022-12-29T07:59:42;16.50;;;2.15;;
62707;SDS011;48769;51.624;5.886;2022-12-29T08:02:09;12.73;;;1.58;;
62707;SDS011;48769;51.624;5.886;2022-12-29T08:04:36;10.30;;;1.88;;
62707;SDS011;48769;51.624;5.886;2022-12-29T08:07:01;13.52;;;1.42;;
62707;SDS011;48769;51.624;5.886;2022-12-29T08:09:27;7.15;;;2.05;;
62707;SDS011;48769;51.624;5.886;2022-12-29T08:11:53;11.52;;;2.05;;
62707;SDS011;48769;51.624;5.886;2022-12-29T08:14:19;11.27;;;1.83;;
62707;SDS011;48769;51.624;5.886;2022-12-29T08:16:44;10.15;;;1.70;;
62707;SDS011;48769;51.624;5.886;2022-12-29T08:19:10;8.85;;;1.77;;
62707;SDS011;48769;51.624;5.886;2022-12-29T08:21:36;5.97;;;1.35;;
62707;SDS011;48769;51.624;5.886;2022-12-29T08:24:02;9.85;;;1.80;;
62707;SDS011;48769;51.624;5.886;2022-12-29T08:26:30;14.15;;;2.38;;
62707;SDS011;48769;51.624;5.886;2022-12-29T08:28:56;14.07;;;2.47;;
62707;SDS011;48769;51.624;5.886;2022-12-29T08:31:21;8.25;;;1.60;;
62707;SDS011;48769;51.624;5.886;2022-12-29T08:33:48;10.15;;;1.83;;
62707;SDS011;48769;51.624;5.886;2022-12-29T08:36:13;8.57;;;1.50;;
62707;SDS011;48769;51.624;5.886;2022-12-29T08:38:39;19.55;;;2.67;;
62707;SDS011;48769;51.624;5.886;2022-12-29T08:41:07;10.35;;;2.10;;
62707;SDS011;48769;51.624;5.886;2022-12-29T08:43:32;11.88;;;1.98;;
62707;SDS011;48769;51.624;5.886;2022-12-29T08:45:58;11.35;;;1.55;;
62707;SDS011;48769;51.624;5.886;2022-12-29T08:48:23;14.15;;;2.10;;
62707;SDS011;48769;51.624;5.886;2022-12-29T08:50:49;14.98;;;2.15;;
62707;SDS011;48769;51.624;5.886;2022-12-29T08:53:15;12.05;;;1.90;;
62707;SDS011;48769;51.624;5.886;2022-12-29T08:55:42;11.40;;;1.65;;
62707;SDS011;48769;51.624;5.886;2022-12-29T08:58:10;9.55;;;1.90;;
62707;SDS011;48769;51.624;5.886;2022-12-29T09:00:39;15.15;;;1.83;;
62707;SDS011;48769;51.624;5.886;2022-12-29T09:03:05;13.32;;;2.45;;
62707;SDS011;48769;51.624;5.886;2022-12-29T09:05:30;9.15;;;1.58;;
62707;SDS011;48769;51.624;5.886;2022-12-29T09:07:55;13.68;;;2.00;;
62707;SDS011;48769;51.624;5.886;2022-12-29T09:10:21;7.10;;;1.48;;
62707;SDS011;48769;51.624;5.886;2022-12-29T09:12:46;14.93;;;2.00;;
62707;SDS011;48769;51.624;5.886;2022-12-29T09:15:11;15.02;;;2.67;;
62707;SDS011;48769;51.624;5.886;2022-12-29T09:17:37;14.07;;;2.17;;
62707;SDS011;48769;51.624;5.886;2022-12-29T09:20:07;9.60;;;1.55;;
62707;SDS011;48769;51.624;5.886;2022-12-29T09:22:33;12.23;;;1.88;;
62707;SDS011;48769;51.624;5.886;2022-12-29T09:24:59;11.60;;;1.75;;
62707;SDS011;48769;51.624;5.886;2022-12-29T09:27:24;6.82;;;1.95;;
62707;SDS011;48769;51.624;5.886;2022-12-29T09:29:49;12.05;;;2.13;;
62707;SDS011;48769;51.624;5.886;2022-12-29T09:32:15;14.85;;;2.15;;
62707;SDS011;48769;51.624;5.886;2022-12-29T09:34:40;17.42;;;2.10;;
62707;SDS011;48769;51.624;5.886;2022-12-29T09:37:06;8.65;;;2.05;;
62707;SDS011;48769;51.624;5.886;2022-12-29T09:39:31;7.30;;;1.17;;
62707;SDS011;48769;51.624;5.886;2022-12-29T09:47:33;15.65;;;2.08;;
62707;SDS011;48769;51.624;5.886;2022-12-29T09:50:10;8.57;;;1.70;;
62707;SDS011;48769;51.624;5.886;2022-12-29T09:55:47;12.32;;;3.35;;
62707;SDS011;48769;51.624;5.886;2022-12-29T10:00:43;9.82;;;2.17;;
62707;SDS011;48769;51.624;5.886;2022-12-29T10:03:17;12.77;;;2.42;;
62707;SDS011;48769;51.624;5.886;2022-12-29T10:08:34;14.30;;;1.80;;
62707;SDS011;48769;51.624;5.886;2022-12-29T10:11:14;12.40;;;2.20;;
62707;SDS011;48769;51.624;5.886;2022-12-29T10:16:26;10.68;;;2.33;;
62707;SDS011;48769;51.624;5.886;2022-12-29T10:19:09;10.77;;;1.70;;
62707;SDS011;48769;51.624;5.886;2022-12-29T10:24:37;11.32;;;1.60;;
62707;SDS011;48769;51.624;5.886;2022-12-29T10:27:05;12.40;;;1.65;;
62707;SDS011;48769;51.624;5.886;2022-12-29T10:29:37;12.52;;;1.88;;
62707;SDS011;48769;51.624;5.886;2022-12-29T10:32:51;6.90;;;1.80;;
62707;SDS011;48769;51.624;5.886;2022-12-29T10:35:20;12.13;;;2.03;;
62707;SDS011;48769;51.624;5.886;2022-12-29T10:37:49;15.30;;;2.47;;
62707;SDS011;48769;51.624;5.886;2022-12-29T10:40:38;10.38;;;1.70;;
62707;SDS011;48769;51.624;5.886;2022-12-29T10:43:29;9.07;;;2.22;;
62707;SDS011;48769;51.624;5.886;2022-12-29T10:45:56;11.57;;;1.88;;
62707;SDS011;48769;51.624;5.886;2022-12-29T10:48:25;13.85;;;2.00;;
62707;SDS011;48769;51.624;5.886;2022-12-29T10:50:55;13.57;;;1.85;;
62707;SDS011;48769;51.624;5.886;2022-12-29T10:53:24;8.07;;;1.60;;
62707;SDS011;48769;51.624;5.886;2022-12-29T10:55:55;14.02;;;2.45;;
62707;SDS011;48769;51.624;5.886;2022-12-29T10:58:21;9.02;;;2.08;;
62707;SDS011;48769;51.624;5.886;2022-12-29T11:00:49;10.85;;;2.28;;
62707;SDS011;48769;51.624;5.886;2022-12-29T11:06:03;10.15;;;1.85;;
62707;SDS011;48769;51.624;5.886;2022-12-29T11:08:35;10.20;;;1.60;;
62707;SDS011;48769;51.624;5.886;2022-12-29T11:11:08;7.50;;;1.60;;
62707;SDS011;48769;51.624;5.886;2022-12-29T11:13:35;12.93;;;2.58;;
62707;SDS011;48769;51.624;5.886;2022-12-29T11:16:13;6.65;;;1.98;;
62707;SDS011;48769;51.624;5.886;2022-12-29T11:18:39;12.98;;;2.47;;
62707;SDS011;48769;51.624;5.886;2022-12-29T11:21:23;10.80;;;2.05;;
62707;SDS011;48769;51.624;5.886;2022-12-29T11:23:57;11.40;;;1.58;;
62707;SDS011;48769;51.624;5.886;2022-12-29T11:26:25;14.35;;;2.20;;
62707;SDS011;48769;51.624;5.886;2022-12-29T11:29:04;13.25;;;2.03;;
62707;SDS011;48769;51.624;5.886;2022-12-29T11:31:30;9.18;;;2.17;;
62707;SDS011;48769;51.624;5.886;2022-12-29T11:33:55;12.43;;;1.65;;
62707;SDS011;48769;51.624;5.886;2022-12-29T11:36:21;10.77;;;2.00;;
62707;SDS011;48769;51.624;5.886;2022-12-29T11:38:50;11.40;;;1.85;;
62707;SDS011;48769;51.624;5.886;2022-12-29T11:41:24;14.30;;;2.47;;
62707;SDS011;48769;51.624;5.886;2022-12-29T11:43:52;10.32;;;2.40;;
62707;SDS011;48769;51.624;5.886;2022-12-29T11:46:25;12.25;;;2.13;;
62707;SDS011;48769;51.624;5.886;2022-12-29T11:49:03;12.02;;;2.15;;
62707;SDS011;48769;51.624;5.886;2022-12-29T11:51:30;17.35;;;2.25;;
62707;SDS011;48769;51.624;5.886;2022-12-29T11:54:19;11.00;;;2.45;;
62707;SDS011;48769;51.624;5.886;2022-12-29T11:56:49;11.88;;;2.40;;
62707;SDS011;48769;51.624;5.886;2022-12-29T12:02:03;12.65;;;2.05;;
62707;SDS011;48769;51.624;5.886;2022-12-29T12:04:40;12.18;;;2.05;;
62707;SDS011;48769;51.624;5.886;2022-12-29T12:10:06;11.25;;;2.67;;
62707;SDS011;48769;51.624;5.886;2022-12-29T12:12:44;14.20;;;2.50;;
62707;SDS011;48769;51.624;5.886;2022-12-29T12:15:25;16.00;;;2.63;;
62707;SDS011;48769;51.624;5.886;2022-12-29T12:17:55;15.10;;;3.00;;
62707;SDS011;48769;51.624;5.886;2022-12-29T12:20:47;12.07;;;2.85;;
62707;SDS011;48769;51.624;5.886;2022-12-29T12:26:13;13.40;;;2.92;;
62707;SDS011;48769;51.624;5.886;2022-12-29T12:28:53;10.57;;;2.47;;
62707;SDS011;48769;51.624;5.886;2022-12-29T12:31:24;13.77;;;3.28;;
62707;SDS011;48769;51.624;5.886;2022-12-29T12:33:57;12.38;;;2.30;;
62707;SDS011;48769;51.624;5.886;2022-12-29T12:36:41;11.63;;;2.28;;
62707;SDS011;48769;51.624;5.886;2022-12-29T12:39:21;17.13;;;2.20;;
62707;SDS011;48769;51.624;5.886;2022-12-29T12:42:17;16.60;;;2.63;;
62707;SDS011;48769;51.624;5.886;2022-12-29T12:45:16;10.90;;;2.25;;
62707;SDS011;48769;51.624;5.886;2022-12-29T12:47:59;15.82;;;2.70;;
62707;SDS011;48769;51.624;5.886;2022-12-29T12:53:03;10.00;;;2.60;;
62707;SDS011;48769;51.624;5.886;2022-12-29T13:01:18;9.65;;;2.25;;
62707;SDS011;48769;51.624;5.886;2022-12-29T13:06:58;13.63;;;2.55;;
62707;SDS011;48769;51.624;5.886;2022-12-29T13:12:33;11.55;;;2.78;;
62707;SDS011;48769;51.624;5.886;2022-12-29T13:26:08;14.35;;;1.92;;
62707;SDS011;48769;51.624;5.886;2022-12-29T13:38:44;9.32;;;1.63;;
62707;SDS011;48769;51.624;5.886;2022-12-29T13:41:16;16.17;;;2.20;;
62707;SDS011;48769;51.624;5.886;2022-12-29T13:43:42;13.73;;;2.65;;
62707;SDS011;48769;51.624;5.886;2022-12-29T13:46:13;14.30;;;2.65;;
62707;SDS011;48769;51.624;5.886;2022-12-29T13:48:44;9.43;;;1.85;;
62707;SDS011;48769;51.624;5.886;2022-12-29T13:51:15;17.08;;;2.63;;
62707;SDS011;48769;51.624;5.886;2022-12-29T13:53:48;12.43;;;2.80;;
62707;SDS011;48769;51.624;5.886;2022-12-29T13:56:45;15.45;;;2.65;;
62707;SDS011;48769;51.624;5.886;2022-12-29T13:59:19;17.23;;;2.88;;
62707;SDS011;48769;51.624;5.886;2022-12-29T14:04:34;9.85;;;2.20;;
62707;SDS011;48769;51.624;5.886;2022-12-29T14:07:02;10.75;;;2.55;;
62707;SDS011;48769;51.624;5.886;2022-12-29T14:12:01;11.70;;;2.10;;
62707;SDS011;48769;51.624;5.886;2022-12-29T14:14:27;17.08;;;3.15;;
62707;SDS011;48769;51.624;5.886;2022-12-29T14:16:56;19.90;;;2.58;;
62707;SDS011;48769;51.624;5.886;2022-12-29T14:19:35;15.27;;;2.67;;
62707;SDS011;48769;51.624;5.886;2022-12-29T14:22:06;13.95;;;2.80;;
62707;SDS011;48769;51.624;5.886;2022-12-29T14:27:00;10.35;;;2.22;;
62707;SDS011;48769;51.624;5.886;2022-12-29T14:31:54;8.07;;;2.30;;
62707;SDS011;48769;51.624;5.886;2022-12-29T14:37:46;7.38;;;1.77;;
62707;SDS011;48769;51.624;5.886;2022-12-29T14:40:02;8.23;;;1.85;;
62707;SDS011;48769;51.624;5.886;2022-12-29T14:42:30;9.52;;;1.98;;
62707;SDS011;48769;51.624;5.886;2022-12-29T14:45:05;13.75;;;2.97;;
62707;SDS011;48769;51.624;5.886;2022-12-29T14:47:50;12.15;;;2.83;;
62707;SDS011;48769;51.624;5.886;2022-12-29T14:52:58;13.95;;;2.85;;
62707;SDS011;48769;51.624;5.886;2022-12-29T14:55:31;17.10;;;2.67;;
62707;SDS011;48769;51.624;5.886;2022-12-29T15:00:54;14.48;;;3.58;;
62707;SDS011;48769;51.624;5.886;2022-12-29T15:06:09;14.60;;;2.65;;
62707;SDS011;48769;51.624;5.886;2022-12-29T15:08:39;18.83;;;2.50;;
62707;SDS011;48769;51.624;5.886;2022-12-29T15:17:08;14.80;;;2.90;;
62707;SDS011;48769;51.624;5.886;2022-12-29T15:19:35;10.93;;;2.47;;
62707;SDS011;48769;51.624;5.886;2022-12-29T15:22:01;12.02;;;2.83;;
62707;SDS011;48769;51.624;5.886;2022-12-29T15:24:27;13.18;;;2.90;;
62707;SDS011;48769;51.624;5.886;2022-12-29T15:26:54;9.60;;;2.22;;
62707;SDS011;48769;51.624;5.886;2022-12-29T15:29:55;11.55;;;3.42;;
62707;SDS011;48769;51.624;5.886;2022-12-29T15:34:40;10.57;;;2.03;;
62707;SDS011;48769;51.624;5.886;2022-12-29T15:37:06;10.00;;;2.10;;
62707;SDS011;48769;51.624;5.886;2022-12-29T15:39:33;18.17;;;2.85;;
62707;SDS011;48769;51.624;5.886;2022-12-29T15:44:44;10.95;;;2.53;;
62707;SDS011;48769;51.624;5.886;2022-12-29T15:47:17;6.72;;;1.85;;
62707;SDS011;48769;51.624;5.886;2022-12-29T15:49:49;8.43;;;2.95;;
62707;SDS011;48769;51.624;5.886;2022-12-29T15:52:20;8.60;;;2.03;;
62707;SDS011;48769;51.624;5.886;2022-12-29T15:54:48;7.53;;;1.50;;
62707;SDS011;48769;51.624;5.886;2022-12-29T15:57:23;7.63;;;1.85;;
62707;SDS011;48769;51.624;5.886;2022-12-29T15:59:51;8.07;;;2.85;;
62707;SDS011;48769;51.624;5.886;2022-12-29T16:02:16;10.40;;;3.25;;
62707;SDS011;48769;51.624;5.886;2022-12-29T16:04:42;9.60;;;2.60;;
62707;SDS011;48769;51.624;5.886;2022-12-29T16:07:20;6.57;;;1.95;;
62707;SDS011;48769;51.624;5.886;2022-12-29T16:09:53;10.25;;;2.30;;
62707;SDS011;48769;51.624;5.886;2022-12-29T16:12:23;7.80;;;2.35;;
62707;SDS011;48769;51.624;5.886;2022-12-29T16:14:56;11.05;;;3.47;;
62707;SDS011;48769;51.624;5.886;2022-12-29T16:17:30;7.97;;;2.88;;
62707;SDS011;48769;51.624;5.886;2022-12-29T16:20:03;10.43;;;2.88;;
62707;SDS011;48769;51.624;5.886;2022-12-29T16:22:39;8.35;;;2.72;;
62707;SDS011;48769;51.624;5.886;2022-12-29T16:25:15;11.70;;;1.60;;
62707;SDS011;48769;51.624;5.886;2022-12-29T16:27:42;7.03;;;1.40;;
62707;SDS011;48769;51.624;5.886;2022-12-29T16:30:42;9.30;;;1.73;;
62707;SDS011;48769;51.624;5.886;2022-12-29T16:33:02;9.68;;;1.65;;
62707;SDS011;48769;51.624;5.886;2022-12-29T16:35:37;8.27;;;2.22;;
62707;SDS011;48769;51.624;5.886;2022-12-29T16:40:56;10.23;;;1.67;;
62707;SDS011;48769;51.624;5.886;2022-12-29T16:50:41;7.32;;;1.60;;
62707;SDS011;48769;51.624;5.886;2022-12-29T16:53:21;7.32;;;1.20;;
62707;SDS011;48769;51.624;5.886;2022-12-29T16:55:51;8.13;;;1.63;;
62707;SDS011;48769;51.624;5.886;2022-12-29T16:58:21;11.52;;;1.92;;
62707;SDS011;48769;51.624;5.886;2022-12-29T17:00:49;8.68;;;1.75;;
62707;SDS011;48769;51.624;5.886;2022-12-29T17:03:17;8.93;;;1.13;;
62707;SDS011;48769;51.624;5.886;2022-12-29T17:05:42;4.90;;;1.40;;
62707;SDS011;48769;51.624;5.886;2022-12-29T17:08:17;17.08;;;2.58;;
62707;SDS011;48769;51.624;5.886;2022-12-29T17:10:51;6.28;;;1.42;;
62707;SDS011;48769;51.624;5.886;2022-12-29T17:13:39;10.50;;;1.92;;
62707;SDS011;48769;51.624;5.886;2022-12-29T17:16:05;7.47;;;1.60;;
62707;SDS011;48769;51.624;5.886;2022-12-29T17:18:34;12.30;;;1.55;;
62707;SDS011;48769;51.624;5.886;2022-12-29T17:20:59;11.02;;;1.85;;
62707;SDS011;48769;51.624;5.886;2022-12-29T17:23:25;11.63;;;2.35;;
62707;SDS011;48769;51.624;5.886;2022-12-29T17:25:51;13.93;;;1.92;;